sensor_id;sensor_type;location;lat;lon;timestamp;temperature;humidity
298;DHT22;133;49.626;9.680;2024-02-15T00:01:04;11.60;98.70
298;DHT22;133;49.626;9.680;2024-02-15T00:03:30;11.70;98.70
298;DHT22;133;49.626;9.680;2024-02-15T00:05:57;11.60;98.70
298;DHT22;133;49.626;9.680;2024-02-15T00:08:22;11.60;98.70
298;DHT22;133;49.626;9.680;2024-02-15T00:10:50;11.60;98.70
298;DHT22;133;49.626;9.680;2024-02-15T00:13:15;11.60;98.70
298;DHT22;133;49.626;9.680;2024-02-15T00:15:41;11.60;98.70
298;DHT22;133;49.626;9.680;2024-02-15T00:18:07;11.60;98.70
298;DHT22;133;49.626;9.680;2024-02-15T00:20:33;11.50;98.70
298;DHT22;133;49.626;9.680;2024-02-15T00:23:01;11.50;98.70
298;DHT22;133;49.626;9.680;2024-02-15T00:25:27;11.60;98.70
298;DHT22;133;49.626;9.680;2024-02-15T00:27:53;11.60;98.70
298;DHT22;133;49.626;9.680;2024-02-15T00:30:18;11.50;98.70
298;DHT22;133;49.626;9.680;2024-02-15T00:32:46;11.60;98.70
298;DHT22;133;49.626;9.680;2024-02-15T00:35:16;11.60;98.70
298;DHT22;133;49.626;9.680;2024-02-15T00:37:42;11.70;98.70
298;DHT22;133;49.626;9.680;2024-02-15T00:40:08;11.60;98.70
298;DHT22;133;49.626;9.680;2024-02-15T00:42:34;11.70;98.70
298;DHT22;133;49.626;9.680;2024-02-15T00:44:59;11.70;98.70
298;DHT22;133;49.626;9.680;2024-02-15T00:47:25;11.70;98.70
298;DHT22;133;49.626;9.680;2024-02-15T00:49:51;11.70;98.70
298;DHT22;133;49.626;9.680;2024-02-15T00:52:17;11.70;98.70
298;DHT22;133;49.626;9.680;2024-02-15T00:54:46;11.70;98.70
298;DHT22;133;49.626;9.680;2024-02-15T00:57:11;11.70;98.70
298;DHT22;133;49.626;9.680;2024-02-15T00:59:37;11.70;98.70
298;DHT22;133;49.626;9.680;2024-02-15T01:02:03;11.70;98.70
298;DHT22;133;49.626;9.680;2024-02-15T01:04:29;11.70;98.70
298;DHT22;133;49.626;9.680;2024-02-15T01:06:55;11.70;98.70
298;DHT22;133;49.626;9.680;2024-02-15T01:09:22;11.70;98.70
298;DHT22;133;49.626;9.680;2024-02-15T01:11:47;11.70;98.70
298;DHT22;133;49.626;9.680;2024-02-15T01:14:14;11.70;98.70
298;DHT22;133;49.626;9.680;2024-02-15T01:16:41;11.80;98.60
298;DHT22;133;49.626;9.680;2024-02-15T01:19:06;11.80;98.20
298;DHT22;133;49.626;9.680;2024-02-15T01:21:32;11.80;98.30
298;DHT22;133;49.626;9.680;2024-02-15T01:24:02;11.70;98.40
298;DHT22;133;49.626;9.680;2024-02-15T01:26:29;11.70;98.40
298;DHT22;133;49.626;9.680;2024-02-15T01:28:55;11.70;98.70
298;DHT22;133;49.626;9.680;2024-02-15T01:31:21;11.70;98.70
298;DHT22;133;49.626;9.680;2024-02-15T01:33:48;11.70;98.60
298;DHT22;133;49.626;9.680;2024-02-15T01:36:17;11.80;98.20
298;DHT22;133;49.626;9.680;2024-02-15T01:38:43;11.80;97.80
298;DHT22;133;49.626;9.680;2024-02-15T01:41:09;11.80;97.90
298;DHT22;133;49.626;9.680;2024-02-15T01:43:35;11.80;97.80
298;DHT22;133;49.626;9.680;2024-02-15T01:46:08;11.70;97.60
298;DHT22;133;49.626;9.680;2024-02-15T01:48:36;11.50;97.40
298;DHT22;133;49.626;9.680;2024-02-15T01:51:02;11.40;97.90
298;DHT22;133;49.626;9.680;2024-02-15T01:53:29;11.40;98.20
298;DHT22;133;49.626;9.680;2024-02-15T01:55:56;11.40;98.40
298;DHT22;133;49.626;9.680;2024-02-15T01:58:24;11.30;98.70
298;DHT22;133;49.626;9.680;2024-02-15T02:00:50;11.20;98.70
298;DHT22;133;49.626;9.680;2024-02-15T02:03:16;11.20;98.70
298;DHT22;133;49.626;9.680;2024-02-15T02:05:43;11.20;98.70
298;DHT22;133;49.626;9.680;2024-02-15T02:08:09;11.20;98.70
298;DHT22;133;49.626;9.680;2024-02-15T02:10:38;11.20;98.70
298;DHT22;133;49.626;9.680;2024-02-15T02:13:05;11.20;98.70
298;DHT22;133;49.626;9.680;2024-02-15T02:15:34;11.20;98.70
298;DHT22;133;49.626;9.680;2024-02-15T02:18:00;11.30;98.70
298;DHT22;133;49.626;9.680;2024-02-15T02:20:26;11.30;98.70
298;DHT22;133;49.626;9.680;2024-02-15T02:23:03;11.30;98.70
298;DHT22;133;49.626;9.680;2024-02-15T02:25:32;11.40;98.70
298;DHT22;133;49.626;9.680;2024-02-15T02:27:59;11.40;98.50
298;DHT22;133;49.626;9.680;2024-02-15T02:30:26;11.40;98.20
298;DHT22;133;49.626;9.680;2024-02-15T02:32:55;11.40;98.20
298;DHT22;133;49.626;9.680;2024-02-15T02:35:22;11.40;98.20
298;DHT22;133;49.626;9.680;2024-02-15T02:37:48;11.40;98.30
298;DHT22;133;49.626;9.680;2024-02-15T02:40:13;11.40;98.20
298;DHT22;133;49.626;9.680;2024-02-15T02:42:53;11.40;98.40
298;DHT22;133;49.626;9.680;2024-02-15T02:45:19;11.40;98.40
298;DHT22;133;49.626;9.680;2024-02-15T02:47:48;11.40;98.40
298;DHT22;133;49.626;9.680;2024-02-15T02:50:14;11.50;98.40
298;DHT22;133;49.626;9.680;2024-02-15T02:52:40;11.50;98.30
298;DHT22;133;49.626;9.680;2024-02-15T02:55:06;11.50;98.20
298;DHT22;133;49.626;9.680;2024-02-15T02:57:38;11.50;97.90
298;DHT22;133;49.626;9.680;2024-02-15T03:00:11;11.40;98.00
298;DHT22;133;49.626;9.680;2024-02-15T03:02:39;11.40;98.10
298;DHT22;133;49.626;9.680;2024-02-15T03:05:05;11.40;98.30
298;DHT22;133;49.626;9.680;2024-02-15T03:07:35;11.40;98.30
298;DHT22;133;49.626;9.680;2024-02-15T03:10:01;11.40;98.60
298;DHT22;133;49.626;9.680;2024-02-15T03:12:30;11.50;98.30
298;DHT22;133;49.626;9.680;2024-02-15T03:14:55;11.50;98.00
298;DHT22;133;49.626;9.680;2024-02-15T03:17:23;11.50;97.90
298;DHT22;133;49.626;9.680;2024-02-15T03:19:48;11.50;97.50
298;DHT22;133;49.626;9.680;2024-02-15T03:22:14;11.50;97.80
298;DHT22;133;49.626;9.680;2024-02-15T03:24:40;11.50;98.00
298;DHT22;133;49.626;9.680;2024-02-15T03:27:07;11.40;98.30
298;DHT22;133;49.626;9.680;2024-02-15T03:29:32;11.40;98.30
298;DHT22;133;49.626;9.680;2024-02-15T03:32:01;11.30;98.30
298;DHT22;133;49.626;9.680;2024-02-15T03:34:27;11.30;98.40
298;DHT22;133;49.626;9.680;2024-02-15T03:36:52;11.40;98.40
298;DHT22;133;49.626;9.680;2024-02-15T03:39:19;11.40;98.40
298;DHT22;133;49.626;9.680;2024-02-15T03:41:45;11.40;98.40
298;DHT22;133;49.626;9.680;2024-02-15T03:44:14;11.40;98.40
298;DHT22;133;49.626;9.680;2024-02-15T03:46:40;11.40;98.30
298;DHT22;133;49.626;9.680;2024-02-15T03:49:06;11.40;98.10
298;DHT22;133;49.626;9.680;2024-02-15T03:51:34;11.40;98.10
298;DHT22;133;49.626;9.680;2024-02-15T03:54:00;11.40;98.20
298;DHT22;133;49.626;9.680;2024-02-15T03:56:25;11.40;98.10
298;DHT22;133;49.626;9.680;2024-02-15T03:58:51;11.40;98.20
298;DHT22;133;49.626;9.680;2024-02-15T04:01:17;11.50;98.10
298;DHT22;133;49.626;9.680;2024-02-15T04:03:42;11.40;98.10
298;DHT22;133;49.626;9.680;2024-02-15T04:06:08;11.40;98.20
298;DHT22;133;49.626;9.680;2024-02-15T04:08:38;11.40;98.20
298;DHT22;133;49.626;9.680;2024-02-15T04:11:07;11.40;98.30
298;DHT22;133;49.626;9.680;2024-02-15T04:13:33;11.20;98.40
298;DHT22;133;49.626;9.680;2024-02-15T04:15:59;11.20;98.50
298;DHT22;133;49.626;9.680;2024-02-15T04:18:25;11.20;98.70
298;DHT22;133;49.626;9.680;2024-02-15T04:20:50;11.20;98.70
298;DHT22;133;49.626;9.680;2024-02-15T04:23:18;11.30;98.60
298;DHT22;133;49.626;9.680;2024-02-15T04:25:44;11.30;98.70
298;DHT22;133;49.626;9.680;2024-02-15T04:28:16;11.30;98.60
298;DHT22;133;49.626;9.680;2024-02-15T04:30:42;11.40;98.70
298;DHT22;133;49.626;9.680;2024-02-15T04:33:07;11.40;98.60
298;DHT22;133;49.626;9.680;2024-02-15T04:35:34;11.40;98.40
298;DHT22;133;49.626;9.680;2024-02-15T04:38:00;11.40;98.50
298;DHT22;133;49.626;9.680;2024-02-15T04:40:26;11.50;98.40
298;DHT22;133;49.626;9.680;2024-02-15T04:42:52;11.50;98.30
298;DHT22;133;49.626;9.680;2024-02-15T04:45:17;11.50;98.30
298;DHT22;133;49.626;9.680;2024-02-15T04:47:44;11.50;98.30
298;DHT22;133;49.626;9.680;2024-02-15T04:50:15;11.50;98.20
298;DHT22;133;49.626;9.680;2024-02-15T04:52:43;11.50;98.30
298;DHT22;133;49.626;9.680;2024-02-15T04:55:11;11.60;98.10
298;DHT22;133;49.626;9.680;2024-02-15T04:57:37;11.60;98.00
298;DHT22;133;49.626;9.680;2024-02-15T05:00:03;11.70;97.90
298;DHT22;133;49.626;9.680;2024-02-15T05:02:36;11.70;97.70
298;DHT22;133;49.626;9.680;2024-02-15T05:05:06;11.70;97.40
298;DHT22;133;49.626;9.680;2024-02-15T05:07:33;11.70;97.50
298;DHT22;133;49.626;9.680;2024-02-15T05:10:00;11.70;97.30
298;DHT22;133;49.626;9.680;2024-02-15T05:12:32;11.70;97.20
298;DHT22;133;49.626;9.680;2024-02-15T05:14:59;11.80;97.20
298;DHT22;133;49.626;9.680;2024-02-15T05:17:24;11.80;97.10
298;DHT22;133;49.626;9.680;2024-02-15T05:19:50;11.70;97.00
298;DHT22;133;49.626;9.680;2024-02-15T05:22:16;11.80;97.20
298;DHT22;133;49.626;9.680;2024-02-15T05:24:41;11.80;97.10
298;DHT22;133;49.626;9.680;2024-02-15T05:27:07;11.80;96.90
298;DHT22;133;49.626;9.680;2024-02-15T05:29:32;11.90;96.80
298;DHT22;133;49.626;9.680;2024-02-15T05:32:00;11.90;96.60
298;DHT22;133;49.626;9.680;2024-02-15T05:34:26;11.90;96.60
298;DHT22;133;49.626;9.680;2024-02-15T05:36:52;11.90;96.50
298;DHT22;133;49.626;9.680;2024-02-15T05:39:18;11.90;96.40
298;DHT22;133;49.626;9.680;2024-02-15T05:41:47;11.80;95.90
298;DHT22;133;49.626;9.680;2024-02-15T05:44:12;11.80;96.30
298;DHT22;133;49.626;9.680;2024-02-15T05:46:43;11.80;96.30
298;DHT22;133;49.626;9.680;2024-02-15T05:49:09;11.70;96.50
298;DHT22;133;49.626;9.680;2024-02-15T05:51:40;11.70;96.50
298;DHT22;133;49.626;9.680;2024-02-15T05:54:06;11.70;96.50
298;DHT22;133;49.626;9.680;2024-02-15T05:56:32;11.60;96.70
298;DHT22;133;49.626;9.680;2024-02-15T05:58:57;11.60;96.60
298;DHT22;133;49.626;9.680;2024-02-15T06:01:23;11.70;96.70
298;DHT22;133;49.626;9.680;2024-02-15T06:03:49;11.60;96.50
298;DHT22;133;49.626;9.680;2024-02-15T06:06:15;11.60;96.60
298;DHT22;133;49.626;9.680;2024-02-15T06:08:41;11.60;96.50
298;DHT22;133;49.626;9.680;2024-02-15T06:11:07;11.60;96.70
298;DHT22;133;49.626;9.680;2024-02-15T06:13:34;11.60;96.50
298;DHT22;133;49.626;9.680;2024-02-15T06:16:00;11.50;96.80
298;DHT22;133;49.626;9.680;2024-02-15T06:18:27;11.50;96.90
298;DHT22;133;49.626;9.680;2024-02-15T06:20:55;11.50;96.80
298;DHT22;133;49.626;9.680;2024-02-15T06:23:23;11.50;96.80
298;DHT22;133;49.626;9.680;2024-02-15T06:25:51;11.50;96.90
298;DHT22;133;49.626;9.680;2024-02-15T06:28:18;11.60;96.70
298;DHT22;133;49.626;9.680;2024-02-15T06:31:03;11.60;96.60
298;DHT22;133;49.626;9.680;2024-02-15T06:33:47;11.60;96.20
298;DHT22;133;49.626;9.680;2024-02-15T06:36:31;11.60;96.30
298;DHT22;133;49.626;9.680;2024-02-15T06:39:15;11.50;96.30
298;DHT22;133;49.626;9.680;2024-02-15T06:42:14;11.60;96.40
298;DHT22;133;49.626;9.680;2024-02-15T06:44:45;11.60;96.40
298;DHT22;133;49.626;9.680;2024-02-15T06:47:11;11.60;96.40
298;DHT22;133;49.626;9.680;2024-02-15T06:49:39;11.60;96.40
298;DHT22;133;49.626;9.680;2024-02-15T06:52:06;11.60;96.00
298;DHT22;133;49.626;9.680;2024-02-15T06:54:33;11.60;96.30
298;DHT22;133;49.626;9.680;2024-02-15T06:57:01;11.60;96.30
298;DHT22;133;49.626;9.680;2024-02-15T06:59:27;11.60;96.30
298;DHT22;133;49.626;9.680;2024-02-15T07:01:53;11.60;96.40
298;DHT22;133;49.626;9.680;2024-02-15T07:04:20;11.60;96.60
298;DHT22;133;49.626;9.680;2024-02-15T07:06:46;11.70;96.40
298;DHT22;133;49.626;9.680;2024-02-15T07:09:13;11.70;96.40
298;DHT22;133;49.626;9.680;2024-02-15T07:11:41;11.80;96.20
298;DHT22;133;49.626;9.680;2024-02-15T07:14:07;11.80;95.90
298;DHT22;133;49.626;9.680;2024-02-15T07:16:34;11.80;96.30
298;DHT22;133;49.626;9.680;2024-02-15T07:19:00;11.90;96.10
298;DHT22;133;49.626;9.680;2024-02-15T07:21:26;12.00;95.80
298;DHT22;133;49.626;9.680;2024-02-15T07:23:55;12.00;95.60
298;DHT22;133;49.626;9.680;2024-02-15T07:26:23;11.90;95.30
298;DHT22;133;49.626;9.680;2024-02-15T07:28:56;12.00;95.30
298;DHT22;133;49.626;9.680;2024-02-15T07:31:27;12.00;95.30
298;DHT22;133;49.626;9.680;2024-02-15T07:33:52;12.10;95.00
298;DHT22;133;49.626;9.680;2024-02-15T07:36:22;12.10;95.00
298;DHT22;133;49.626;9.680;2024-02-15T07:38:52;12.10;95.00
298;DHT22;133;49.626;9.680;2024-02-15T07:41:22;12.20;95.10
298;DHT22;133;49.626;9.680;2024-02-15T07:43:48;12.30;94.70
298;DHT22;133;49.626;9.680;2024-02-15T07:46:14;12.40;94.10
298;DHT22;133;49.626;9.680;2024-02-15T07:48:45;12.40;94.00
298;DHT22;133;49.626;9.680;2024-02-15T07:51:13;12.40;94.00
298;DHT22;133;49.626;9.680;2024-02-15T07:53:39;12.50;94.10
298;DHT22;133;49.626;9.680;2024-02-15T07:56:06;12.50;93.80
298;DHT22;133;49.626;9.680;2024-02-15T07:58:31;12.60;93.70
298;DHT22;133;49.626;9.680;2024-02-15T08:00:57;12.60;93.40
298;DHT22;133;49.626;9.680;2024-02-15T08:03:25;12.70;93.40
298;DHT22;133;49.626;9.680;2024-02-15T08:05:55;12.70;93.30
298;DHT22;133;49.626;9.680;2024-02-15T08:08:21;12.70;93.00
298;DHT22;133;49.626;9.680;2024-02-15T08:10:47;12.70;92.70
298;DHT22;133;49.626;9.680;2024-02-15T08:13:14;12.70;92.70
298;DHT22;133;49.626;9.680;2024-02-15T08:15:40;12.70;92.80
298;DHT22;133;49.626;9.680;2024-02-15T08:18:06;12.80;92.70
298;DHT22;133;49.626;9.680;2024-02-15T08:20:34;12.90;92.70
298;DHT22;133;49.626;9.680;2024-02-15T08:23:00;12.90;92.70
298;DHT22;133;49.626;9.680;2024-02-15T08:25:25;13.00;92.80
298;DHT22;133;49.626;9.680;2024-02-15T08:27:51;13.00;92.60
298;DHT22;133;49.626;9.680;2024-02-15T08:30:17;13.10;92.70
298;DHT22;133;49.626;9.680;2024-02-15T08:32:43;13.10;92.50
298;DHT22;133;49.626;9.680;2024-02-15T08:35:12;13.20;91.90
298;DHT22;133;49.626;9.680;2024-02-15T08:37:38;13.20;91.90
298;DHT22;133;49.626;9.680;2024-02-15T08:40:09;13.20;91.50
298;DHT22;133;49.626;9.680;2024-02-15T08:42:43;13.10;90.80
298;DHT22;133;49.626;9.680;2024-02-15T08:45:10;13.20;90.80
298;DHT22;133;49.626;9.680;2024-02-15T08:47:39;13.30;90.90
298;DHT22;133;49.626;9.680;2024-02-15T08:50:08;13.30;91.20
298;DHT22;133;49.626;9.680;2024-02-15T08:52:41;13.40;91.00
298;DHT22;133;49.626;9.680;2024-02-15T08:55:08;13.40;90.40
298;DHT22;133;49.626;9.680;2024-02-15T08:57:35;13.40;90.20
298;DHT22;133;49.626;9.680;2024-02-15T09:00:05;13.40;90.50
298;DHT22;133;49.626;9.680;2024-02-15T09:02:47;13.50;89.80
298;DHT22;133;49.626;9.680;2024-02-15T09:05:14;13.50;89.70
298;DHT22;133;49.626;9.680;2024-02-15T09:07:44;13.40;89.70
298;DHT22;133;49.626;9.680;2024-02-15T09:10:13;13.50;89.00
298;DHT22;133;49.626;9.680;2024-02-15T09:12:40;13.60;88.90
298;DHT22;133;49.626;9.680;2024-02-15T09:15:09;13.60;89.30
298;DHT22;133;49.626;9.680;2024-02-15T09:17:36;13.60;89.20
298;DHT22;133;49.626;9.680;2024-02-15T09:20:09;13.70;89.40
298;DHT22;133;49.626;9.680;2024-02-15T09:22:40;13.80;88.90
298;DHT22;133;49.626;9.680;2024-02-15T09:25:07;13.90;88.50
298;DHT22;133;49.626;9.680;2024-02-15T09:27:33;13.80;88.00
298;DHT22;133;49.626;9.680;2024-02-15T09:29:58;13.80;87.70
298;DHT22;133;49.626;9.680;2024-02-15T09:32:25;13.80;88.00
298;DHT22;133;49.626;9.680;2024-02-15T09:34:51;13.80;87.90
298;DHT22;133;49.626;9.680;2024-02-15T09:37:17;13.80;88.00
298;DHT22;133;49.626;9.680;2024-02-15T09:39:42;13.90;88.00
298;DHT22;133;49.626;9.680;2024-02-15T09:42:09;14.00;88.10
298;DHT22;133;49.626;9.680;2024-02-15T09:44:35;14.10;88.30
298;DHT22;133;49.626;9.680;2024-02-15T09:47:05;14.10;87.80
298;DHT22;133;49.626;9.680;2024-02-15T09:49:38;14.20;87.80
298;DHT22;133;49.626;9.680;2024-02-15T09:52:07;14.30;86.60
298;DHT22;133;49.626;9.680;2024-02-15T09:54:41;14.30;86.80
298;DHT22;133;49.626;9.680;2024-02-15T09:57:11;14.30;86.30
298;DHT22;133;49.626;9.680;2024-02-15T09:59:40;14.40;86.20
298;DHT22;133;49.626;9.680;2024-02-15T10:02:07;14.40;86.20
298;DHT22;133;49.626;9.680;2024-02-15T10:04:42;14.30;86.30
298;DHT22;133;49.626;9.680;2024-02-15T10:07:08;14.40;86.00
298;DHT22;133;49.626;9.680;2024-02-15T10:09:34;14.50;86.30
298;DHT22;133;49.626;9.680;2024-02-15T10:12:03;14.60;86.00
298;DHT22;133;49.626;9.680;2024-02-15T10:14:32;14.70;85.70
298;DHT22;133;49.626;9.680;2024-02-15T10:17:06;14.70;85.40
298;DHT22;133;49.626;9.680;2024-02-15T10:19:35;14.80;85.20
298;DHT22;133;49.626;9.680;2024-02-15T10:22:06;15.00;85.30
298;DHT22;133;49.626;9.680;2024-02-15T10:24:32;15.00;85.10
298;DHT22;133;49.626;9.680;2024-02-15T10:27:02;15.10;85.30
298;DHT22;133;49.626;9.680;2024-02-15T10:29:36;15.30;84.90
298;DHT22;133;49.626;9.680;2024-02-15T10:32:03;15.40;84.20
298;DHT22;133;49.626;9.680;2024-02-15T10:34:30;15.60;83.90
298;DHT22;133;49.626;9.680;2024-02-15T10:37:15;15.70;82.60
298;DHT22;133;49.626;9.680;2024-02-15T10:40:05;15.80;82.20
298;DHT22;133;49.626;9.680;2024-02-15T10:42:33;15.90;82.50
298;DHT22;133;49.626;9.680;2024-02-15T10:45:03;16.10;81.70
298;DHT22;133;49.626;9.680;2024-02-15T10:47:30;16.20;81.30
298;DHT22;133;49.626;9.680;2024-02-15T10:49:57;16.30;81.00
298;DHT22;133;49.626;9.680;2024-02-15T10:52:25;16.40;80.20
298;DHT22;133;49.626;9.680;2024-02-15T10:55:03;16.20;79.00
298;DHT22;133;49.626;9.680;2024-02-15T10:57:32;16.20;80.10
298;DHT22;133;49.626;9.680;2024-02-15T11:00:02;16.20;79.80
298;DHT22;133;49.626;9.680;2024-02-15T11:03:04;16.20;79.60
298;DHT22;133;49.626;9.680;2024-02-15T11:05:35;16.00;79.00
298;DHT22;133;49.626;9.680;2024-02-15T11:08:10;15.90;78.70
298;DHT22;133;49.626;9.680;2024-02-15T11:10:37;15.90;79.60
298;DHT22;133;49.626;9.680;2024-02-15T11:13:10;15.90;79.70
298;DHT22;133;49.626;9.680;2024-02-15T11:18:02;16.10;79.00
298;DHT22;133;49.626;9.680;2024-02-15T11:23:00;16.20;78.10
298;DHT22;133;49.626;9.680;2024-02-15T11:25:39;16.40;78.60
298;DHT22;133;49.626;9.680;2024-02-15T11:30:52;16.50;77.60
298;DHT22;133;49.626;9.680;2024-02-15T11:33:34;16.60;77.20
298;DHT22;133;49.626;9.680;2024-02-15T11:36:10;16.90;77.30
298;DHT22;133;49.626;9.680;2024-02-15T11:38:37;17.10;76.40
298;DHT22;133;49.626;9.680;2024-02-15T11:41:07;16.90;74.60
298;DHT22;133;49.626;9.680;2024-02-15T11:46:15;17.00;74.30
298;DHT22;133;49.626;9.680;2024-02-15T11:48:50;17.40;73.30
298;DHT22;133;49.626;9.680;2024-02-15T11:51:33;17.50;73.40
298;DHT22;133;49.626;9.680;2024-02-15T11:54:08;17.80;71.20
298;DHT22;133;49.626;9.680;2024-02-15T11:56:56;18.00;69.90
298;DHT22;133;49.626;9.680;2024-02-15T11:59:40;18.20;70.60
298;DHT22;133;49.626;9.680;2024-02-15T12:02:22;18.30;70.30
298;DHT22;133;49.626;9.680;2024-02-15T12:05:06;18.60;69.70
298;DHT22;133;49.626;9.680;2024-02-15T12:07:50;18.70;69.10
298;DHT22;133;49.626;9.680;2024-02-15T12:10:35;19.10;68.40
298;DHT22;133;49.626;9.680;2024-02-15T12:13:19;19.50;67.70
298;DHT22;133;49.626;9.680;2024-02-15T12:16:03;19.70;67.20
298;DHT22;133;49.626;9.680;2024-02-15T12:18:48;20.20;67.30
298;DHT22;133;49.626;9.680;2024-02-15T12:21:23;20.50;66.30
298;DHT22;133;49.626;9.680;2024-02-15T12:23:50;20.60;66.00
298;DHT22;133;49.626;9.680;2024-02-15T12:26:20;20.80;66.00
298;DHT22;133;49.626;9.680;2024-02-15T12:28:52;20.90;65.80
298;DHT22;133;49.626;9.680;2024-02-15T12:31:22;21.00;65.50
298;DHT22;133;49.626;9.680;2024-02-15T12:34:02;20.80;64.50
298;DHT22;133;49.626;9.680;2024-02-15T12:36:35;20.80;65.00
298;DHT22;133;49.626;9.680;2024-02-15T12:39:04;20.80;64.70
298;DHT22;133;49.626;9.680;2024-02-15T12:41:39;21.20;65.10
298;DHT22;133;49.626;9.680;2024-02-15T12:44:08;21.60;64.80
298;DHT22;133;49.626;9.680;2024-02-15T12:46:36;21.90;63.10
298;DHT22;133;49.626;9.680;2024-02-15T12:49:10;22.00;62.40
298;DHT22;133;49.626;9.680;2024-02-15T12:51:39;22.30;61.20
298;DHT22;133;49.626;9.680;2024-02-15T12:54:09;22.30;60.70
298;DHT22;133;49.626;9.680;2024-02-15T12:56:39;22.00;60.60
298;DHT22;133;49.626;9.680;2024-02-15T12:59:05;21.70;61.50
298;DHT22;133;49.626;9.680;2024-02-15T13:01:32;21.70;61.80
298;DHT22;133;49.626;9.680;2024-02-15T13:03:58;21.50;62.40
298;DHT22;133;49.626;9.680;2024-02-15T13:06:26;21.50;62.80
298;DHT22;133;49.626;9.680;2024-02-15T13:08:52;21.70;63.20
298;DHT22;133;49.626;9.680;2024-02-15T13:11:17;21.70;61.90
298;DHT22;133;49.626;9.680;2024-02-15T13:13:43;21.70;62.10
298;DHT22;133;49.626;9.680;2024-02-15T13:16:09;21.40;62.00
298;DHT22;133;49.626;9.680;2024-02-15T13:18:34;21.50;63.20
298;DHT22;133;49.626;9.680;2024-02-15T13:21:00;21.70;63.10
298;DHT22;133;49.626;9.680;2024-02-15T13:23:25;21.70;62.60
298;DHT22;133;49.626;9.680;2024-02-15T13:25:52;21.90;62.70
298;DHT22;133;49.626;9.680;2024-02-15T13:28:18;22.00;62.10
298;DHT22;133;49.626;9.680;2024-02-15T13:30:44;22.00;61.80
298;DHT22;133;49.626;9.680;2024-02-15T13:33:14;22.20;61.40
298;DHT22;133;49.626;9.680;2024-02-15T13:35:39;22.20;62.10
298;DHT22;133;49.626;9.680;2024-02-15T13:38:06;22.10;61.60
298;DHT22;133;49.626;9.680;2024-02-15T13:40:34;22.20;61.30
298;DHT22;133;49.626;9.680;2024-02-15T13:43:01;22.20;61.40
298;DHT22;133;49.626;9.680;2024-02-15T13:45:40;22.30;61.20
298;DHT22;133;49.626;9.680;2024-02-15T13:48:06;22.00;60.50
298;DHT22;133;49.626;9.680;2024-02-15T13:50:36;22.00;60.50
298;DHT22;133;49.626;9.680;2024-02-15T13:53:03;21.30;61.00
298;DHT22;133;49.626;9.680;2024-02-15T13:55:29;20.80;62.50
298;DHT22;133;49.626;9.680;2024-02-15T13:57:55;20.90;63.10
298;DHT22;133;49.626;9.680;2024-02-15T14:00:22;21.00;63.30
298;DHT22;133;49.626;9.680;2024-02-15T14:02:52;21.00;63.20
298;DHT22;133;49.626;9.680;2024-02-15T14:05:20;20.90;63.10
298;DHT22;133;49.626;9.680;2024-02-15T14:07:50;20.80;62.70
298;DHT22;133;49.626;9.680;2024-02-15T14:10:17;20.50;63.90
298;DHT22;133;49.626;9.680;2024-02-15T14:12:50;20.30;64.40
298;DHT22;133;49.626;9.680;2024-02-15T14:15:21;19.80;64.50
298;DHT22;133;49.626;9.680;2024-02-15T14:17:47;19.80;65.90
298;DHT22;133;49.626;9.680;2024-02-15T14:20:13;19.90;66.20
298;DHT22;133;49.626;9.680;2024-02-15T14:22:44;19.70;67.10
298;DHT22;133;49.626;9.680;2024-02-15T14:25:10;19.60;67.50
298;DHT22;133;49.626;9.680;2024-02-15T14:27:40;19.60;68.00
298;DHT22;133;49.626;9.680;2024-02-15T14:30:06;19.50;68.00
298;DHT22;133;49.626;9.680;2024-02-15T14:32:51;19.40;68.80
298;DHT22;133;49.626;9.680;2024-02-15T14:35:36;19.30;68.10
298;DHT22;133;49.626;9.680;2024-02-15T14:38:03;19.20;69.40
298;DHT22;133;49.626;9.680;2024-02-15T14:40:33;19.10;69.10
298;DHT22;133;49.626;9.680;2024-02-15T14:42:58;19.10;69.20
298;DHT22;133;49.626;9.680;2024-02-15T14:45:25;19.10;69.30
298;DHT22;133;49.626;9.680;2024-02-15T14:47:51;19.10;69.40
298;DHT22;133;49.626;9.680;2024-02-15T14:50:17;18.90;69.00
298;DHT22;133;49.626;9.680;2024-02-15T14:52:43;18.90;69.00
298;DHT22;133;49.626;9.680;2024-02-15T14:55:09;19.00;69.70
298;DHT22;133;49.626;9.680;2024-02-15T14:57:35;18.90;70.10
298;DHT22;133;49.626;9.680;2024-02-15T15:00:07;19.00;69.50
298;DHT22;133;49.626;9.680;2024-02-15T15:02:47;18.90;69.60
298;DHT22;133;49.626;9.680;2024-02-15T15:05:13;18.80;69.50
298;DHT22;133;49.626;9.680;2024-02-15T15:07:58;18.60;69.70
298;DHT22;133;49.626;9.680;2024-02-15T15:10:45;18.60;70.80
298;DHT22;133;49.626;9.680;2024-02-15T15:13:29;18.50;70.90
298;DHT22;133;49.626;9.680;2024-02-15T15:15:55;18.50;71.50
298;DHT22;133;49.626;9.680;2024-02-15T15:18:20;18.50;71.10
298;DHT22;133;49.626;9.680;2024-02-15T15:20:47;18.40;71.40
298;DHT22;133;49.626;9.680;2024-02-15T15:23:13;18.40;71.90
298;DHT22;133;49.626;9.680;2024-02-15T15:25:41;18.30;72.30
298;DHT22;133;49.626;9.680;2024-02-15T15:28:07;18.10;71.90
298;DHT22;133;49.626;9.680;2024-02-15T15:30:33;18.10;72.10
298;DHT22;133;49.626;9.680;2024-02-15T15:32:59;18.10;72.10
298;DHT22;133;49.626;9.680;2024-02-15T15:35:28;18.00;71.70
298;DHT22;133;49.626;9.680;2024-02-15T15:37:56;17.90;72.30
298;DHT22;133;49.626;9.680;2024-02-15T15:40:23;17.80;72.80
298;DHT22;133;49.626;9.680;2024-02-15T15:42:49;17.80;72.80
298;DHT22;133;49.626;9.680;2024-02-15T15:45:14;17.70;72.90
298;DHT22;133;49.626;9.680;2024-02-15T15:47:41;17.60;73.80
298;DHT22;133;49.626;9.680;2024-02-15T15:50:07;17.50;73.80
298;DHT22;133;49.626;9.680;2024-02-15T15:52:33;17.40;73.70
298;DHT22;133;49.626;9.680;2024-02-15T15:55:00;17.20;74.00
298;DHT22;133;49.626;9.680;2024-02-15T15:57:25;17.10;74.90
298;DHT22;133;49.626;9.680;2024-02-15T15:59:51;17.00;74.20
298;DHT22;133;49.626;9.680;2024-02-15T16:02:20;16.80;74.80
298;DHT22;133;49.626;9.680;2024-02-15T16:04:48;16.70;74.80
298;DHT22;133;49.626;9.680;2024-02-15T16:07:14;16.60;74.80
298;DHT22;133;49.626;9.680;2024-02-15T16:09:41;16.50;75.10
298;DHT22;133;49.626;9.680;2024-02-15T16:12:10;16.50;75.70
298;DHT22;133;49.626;9.680;2024-02-15T16:14:41;16.30;75.80
298;DHT22;133;49.626;9.680;2024-02-15T16:17:11;16.20;76.40
298;DHT22;133;49.626;9.680;2024-02-15T16:19:36;16.20;76.70
298;DHT22;133;49.626;9.680;2024-02-15T16:22:03;16.00;76.50
298;DHT22;133;49.626;9.680;2024-02-15T16:24:29;16.00;76.70
298;DHT22;133;49.626;9.680;2024-02-15T16:26:58;15.90;77.10
298;DHT22;133;49.626;9.680;2024-02-15T16:29:24;15.70;77.40
298;DHT22;133;49.626;9.680;2024-02-15T16:31:49;15.60;77.70
298;DHT22;133;49.626;9.680;2024-02-15T16:34:16;15.50;78.00
298;DHT22;133;49.626;9.680;2024-02-15T16:36:43;15.40;78.30
298;DHT22;133;49.626;9.680;2024-02-15T16:39:10;15.30;78.90
298;DHT22;133;49.626;9.680;2024-02-15T16:41:37;15.20;79.30
298;DHT22;133;49.626;9.680;2024-02-15T16:44:03;15.10;79.40
298;DHT22;133;49.626;9.680;2024-02-15T16:46:29;15.00;79.70
298;DHT22;133;49.626;9.680;2024-02-15T16:48:55;15.00;79.90
298;DHT22;133;49.626;9.680;2024-02-15T16:51:21;14.90;80.20
298;DHT22;133;49.626;9.680;2024-02-15T16:53:53;14.90;80.00